sensor_id;sensor_type;location;lat;lon;timestamp;pressure;altitude;pressure_sealevel;temperature
81319;BMP280;74078;48.420;14.828;2023-11-19T00:01:42;92751.38;;;0.83
81319;BMP280;74078;48.420;14.828;2023-11-19T00:04:08;92749.94;;;0.82
81319;BMP280;74078;48.420;14.828;2023-11-19T00:06:33;92737.44;;;0.86
81319;BMP280;74078;48.420;14.828;2023-11-19T00:08:58;92737.44;;;0.89
81319;BMP280;74078;48.420;14.828;2023-11-19T00:11:25;92732.81;;;0.84
81319;BMP280;74078;48.420;14.828;2023-11-19T00:13:50;92719.91;;;0.82
81319;BMP280;74078;48.420;14.828;2023-11-19T00:16:15;92723.47;;;0.78
81319;BMP280;74078;48.420;14.828;2023-11-19T00:18:41;92725.97;;;0.74
81319;BMP280;74078;48.420;14.828;2023-11-19T00:21:07;92714.19;;;0.78
81319;BMP280;74078;48.420;14.828;2023-11-19T00:23:33;92711.31;;;0.66
81319;BMP280;74078;48.420;14.828;2023-11-19T00:25:58;92714.56;;;0.73
81319;BMP280;74078;48.420;14.828;2023-11-19T00:28:23;92712.41;;;0.68
81319;BMP280;74078;48.420;14.828;2023-11-19T00:30:49;92707.06;;;0.80
81319;BMP280;74078;48.420;14.828;2023-11-19T00:33:14;92702.06;;;0.87
81319;BMP280;74078;48.420;14.828;2023-11-19T00:35:39;92699.22;;;1.07
81319;BMP280;74078;48.420;14.828;2023-11-19T00:38:04;92694.19;;;1.07
81319;BMP280;74078;48.420;14.828;2023-11-19T00:40:30;92697.41;;;1.11
81319;BMP280;74078;48.420;14.828;2023-11-19T00:42:55;92687.41;;;1.21
81319;BMP280;74078;48.420;14.828;2023-11-19T00:45:20;92684.16;;;1.35
81319;BMP280;74078;48.420;14.828;2023-11-19T00:47:45;92686.31;;;1.33
81319;BMP280;74078;48.420;14.828;2023-11-19T00:50:11;92685.97;;;1.27
81319;BMP280;74078;48.420;14.828;2023-11-19T00:52:36;92684.53;;;1.30
81319;BMP280;74078;48.420;14.828;2023-11-19T00:55:02;73855.19;;;1.39
81319;BMP280;74078;48.420;14.828;2023-11-19T00:57:27;92669.84;;;1.32
81319;BMP280;74078;48.420;14.828;2023-11-19T00:59:53;92672.69;;;1.34
81319;BMP280;74078;48.420;14.828;2023-11-19T01:02:18;92658.78;;;1.33
81319;BMP280;74078;48.420;14.828;2023-11-19T01:04:43;92649.81;;;1.32
81319;BMP280;74078;48.420;14.828;2023-11-19T01:07:09;92646.94;;;1.37
81319;BMP280;74078;48.420;14.828;2023-11-19T01:09:37;92633.34;;;1.38
81319;BMP280;74078;48.420;14.828;2023-11-19T01:12:03;92632.63;;;1.37
81319;BMP280;74078;48.420;14.828;2023-11-19T01:14:28;92633.72;;;1.33
81319;BMP280;74078;48.420;14.828;2023-11-19T01:16:53;92631.59;;;1.28
81319;BMP280;74078;48.420;14.828;2023-11-19T01:19:19;92630.88;;;1.31
81319;BMP280;74078;48.420;14.828;2023-11-19T01:21:44;92628.72;;;1.33
81319;BMP280;74078;48.420;14.828;2023-11-19T01:24:10;92623.34;;;1.24
81319;BMP280;74078;48.420;14.828;2023-11-19T01:26:38;92626.97;;;1.19
81319;BMP280;74078;48.420;14.828;2023-11-19T01:29:03;92615.50;;;1.18
81319;BMP280;74078;48.420;14.828;2023-11-19T01:31:29;92598.69;;;1.26
81319;BMP280;74078;48.420;14.828;2023-11-19T01:33:54;92614.78;;;1.25
81319;BMP280;74078;48.420;14.828;2023-11-19T01:36:20;92605.75;;;1.45
81319;BMP280;74078;48.420;14.828;2023-11-19T01:38:45;92598.97;;;1.45
81319;BMP280;74078;48.420;14.828;2023-11-19T01:41:11;92593.22;;;1.48
81319;BMP280;74078;48.420;14.828;2023-11-19T01:43:37;92588.66;;;1.26
81319;BMP280;74078;48.420;14.828;2023-11-19T01:46:02;92589.41;;;1.23
81319;BMP280;74078;48.420;14.828;2023-11-19T01:48:33;92594.41;;;1.19
81319;BMP280;74078;48.420;14.828;2023-11-19T01:51:00;92590.44;;;1.32
81319;BMP280;74078;48.420;14.828;2023-11-19T01:53:25;92586.81;;;1.37
81319;BMP280;74078;48.420;14.828;2023-11-19T01:55:51;92586.88;;;1.26
81319;BMP280;74078;48.420;14.828;2023-11-19T01:58:17;92581.16;;;1.22
81319;BMP280;74078;48.420;14.828;2023-11-19T02:00:44;92569.00;;;1.21
81319;BMP280;74078;48.420;14.828;2023-11-19T02:03:09;92567.56;;;1.30
81319;BMP280;74078;48.420;14.828;2023-11-19T02:05:35;92570.78;;;1.31
81319;BMP280;74078;48.420;14.828;2023-11-19T02:08:01;92559.34;;;1.23
81319;BMP280;74078;48.420;14.828;2023-11-19T02:10:26;92546.47;;;1.17
81319;BMP280;74078;48.420;14.828;2023-11-19T02:12:51;92554.66;;;1.32
81319;BMP280;74078;48.420;14.828;2023-11-19T02:15:17;92543.25;;;1.31
81319;BMP280;74078;48.420;14.828;2023-11-19T02:17:44;92542.53;;;1.30
81319;BMP280;74078;48.420;14.828;2023-11-19T02:20:09;92536.00;;;1.40
81319;BMP280;74078;48.420;14.828;2023-11-19T02:22:37;92533.88;;;1.38
81319;BMP280;74078;48.420;14.828;2023-11-19T02:25:06;92537.44;;;1.44
81319;BMP280;74078;48.420;14.828;2023-11-19T02:30:06;92526.03;;;1.33
81319;BMP280;74078;48.420;14.828;2023-11-19T02:32:33;92521.41;;;1.28
81319;BMP280;74078;48.420;14.828;2023-11-19T02:34:59;92520.25;;;1.50
81319;BMP280;74078;48.420;14.828;2023-11-19T02:37:24;92503.41;;;1.47
81319;BMP280;74078;48.420;14.828;2023-11-19T02:39:49;92501.03;;;1.29
81319;BMP280;74078;48.420;14.828;2023-11-19T02:42:14;92515.31;;;1.29
81319;BMP280;74078;48.420;14.828;2023-11-19T02:44:43;92513.19;;;1.24
81319;BMP280;74078;48.420;14.828;2023-11-19T02:47:08;92499.50;;;1.46
81319;BMP280;74078;48.420;14.828;2023-11-19T02:49:34;92493.16;;;1.27
81319;BMP280;74078;48.420;14.828;2023-11-19T02:51:59;92488.84;;;1.31
81319;BMP280;74078;48.420;14.828;2023-11-19T02:54:24;92481.63;;;1.40
81319;BMP280;74078;48.420;14.828;2023-11-19T02:56:52;92488.41;;;1.40
81319;BMP280;74078;48.420;14.828;2023-11-19T02:59:20;92489.66;;;1.11
81319;BMP280;74078;48.420;14.828;2023-11-19T03:01:53;92482.44;;;1.20
81319;BMP280;74078;48.420;14.828;2023-11-19T03:04:19;92485.66;;;1.20
81319;BMP280;74078;48.420;14.828;2023-11-19T03:06:48;92485.72;;;1.10
81319;BMP280;74078;48.420;14.828;2023-11-19T03:09:15;92484.69;;;0.89
81319;BMP280;74078;48.420;14.828;2023-11-19T03:11:40;92480.78;;;0.88
81319;BMP280;74078;48.420;14.828;2023-11-19T03:14:06;92476.09;;;0.94
81319;BMP280;74078;48.420;14.828;2023-11-19T03:16:33;92477.16;;;1.04
81319;BMP280;74078;48.420;14.828;2023-11-19T03:18:59;92475.34;;;1.01
81319;BMP280;74078;48.420;14.828;2023-11-19T03:21:29;92480.72;;;1.10
81319;BMP280;74078;48.420;14.828;2023-11-19T03:23:57;92483.56;;;1.12
81319;BMP280;74078;48.420;14.828;2023-11-19T03:26:27;92485.66;;;1.24
81319;BMP280;74078;48.420;14.828;2023-11-19T03:28:53;92461.66;;;1.30
81319;BMP280;74078;48.420;14.828;2023-11-19T03:31:20;92465.34;;;1.11
81319;BMP280;74078;48.420;14.828;2023-11-19T03:33:46;92456.66;;;1.30
81319;BMP280;74078;48.420;14.828;2023-11-19T03:36:13;92462.63;;;1.43
81319;BMP280;74078;48.420;14.828;2023-11-19T03:38:39;92460.28;;;1.18
81319;BMP280;74078;48.420;14.828;2023-11-19T03:41:14;92464.47;;;1.35
81319;BMP280;74078;48.420;14.828;2023-11-19T03:43:41;92458.91;;;1.07
81319;BMP280;74078;48.420;14.828;2023-11-19T03:46:17;92453.53;;;1.05
81319;BMP280;74078;48.420;14.828;2023-11-19T03:48:44;92443.75;;;1.35
81319;BMP280;74078;48.420;14.828;2023-11-19T03:51:12;92441.56;;;1.37
81319;BMP280;74078;48.420;14.828;2023-11-19T03:53:45;92438.28;;;1.47
81319;BMP280;74078;48.420;14.828;2023-11-19T03:56:11;92435.09;;;1.46
81319;BMP280;74078;48.420;14.828;2023-11-19T03:58:38;92434.38;;;1.46
81319;BMP280;74078;48.420;14.828;2023-11-19T04:01:05;92434.75;;;1.44
81319;BMP280;74078;48.420;14.828;2023-11-19T04:03:32;92428.72;;;1.35
81319;BMP280;74078;48.420;14.828;2023-11-19T04:05:58;92429.91;;;1.13
81319;BMP280;74078;48.420;14.828;2023-11-19T04:08:25;92437.38;;;1.20
81319;BMP280;74078;48.420;14.828;2023-11-19T04:10:52;92438.13;;;1.13
81319;BMP280;74078;48.420;14.828;2023-11-19T04:13:18;92433.06;;;1.31
81319;BMP280;74078;48.420;14.828;2023-11-19T04:15:45;92427.69;;;1.29
81319;BMP280;74078;48.420;14.828;2023-11-19T04:18:11;92434.13;;;1.30
81319;BMP280;74078;48.420;14.828;2023-11-19T04:20:38;92424.84;;;1.27
81319;BMP280;74078;48.420;14.828;2023-11-19T04:23:06;92422.41;;;1.13
81319;BMP280;74078;48.420;14.828;2023-11-19T04:25:32;92418.09;;;1.17
81319;BMP280;74078;48.420;14.828;2023-11-19T04:27:59;92418.50;;;1.05
81319;BMP280;74078;48.420;14.828;2023-11-19T04:30:25;92424.19;;;1.09
81319;BMP280;74078;48.420;14.828;2023-11-19T04:32:51;92421.66;;;1.23
81319;BMP280;74078;48.420;14.828;2023-11-19T04:35:18;92410.47;;;1.34
81319;BMP280;74078;48.420;14.828;2023-11-19T04:37:45;92407.94;;;1.38
81319;BMP280;74078;48.420;14.828;2023-11-19T04:40:13;92408.69;;;1.35
81319;BMP280;74078;48.420;14.828;2023-11-19T04:42:39;92405.88;;;1.29
81319;BMP280;74078;48.420;14.828;2023-11-19T04:45:08;92415.63;;;1.10
81319;BMP280;74078;48.420;14.828;2023-11-19T04:47:38;92415.28;;;1.11
81319;BMP280;74078;48.420;14.828;2023-11-19T04:50:08;92408.91;;;0.92
81319;BMP280;74078;48.420;14.828;2023-11-19T04:52:38;92408.50;;;1.05
81319;BMP280;74078;48.420;14.828;2023-11-19T04:55:05;92395.47;;;0.90
81319;BMP280;74078;48.420;14.828;2023-11-19T04:57:32;92396.06;;;0.87
81319;BMP280;74078;48.420;14.828;2023-11-19T04:59:58;92401.00;;;1.01
81319;BMP280;74078;48.420;14.828;2023-11-19T05:02:25;92402.50;;;0.88
81319;BMP280;74078;48.420;14.828;2023-11-19T05:04:51;92396.78;;;0.84
81319;BMP280;74078;48.420;14.828;2023-11-19T05:07:18;92398.50;;;1.01
81319;BMP280;74078;48.420;14.828;2023-11-19T05:09:44;92399.88;;;1.09
81319;BMP280;74078;48.420;14.828;2023-11-19T05:12:10;92404.47;;;1.21
81319;BMP280;74078;48.420;14.828;2023-11-19T05:14:38;92402.41;;;1.06
81319;BMP280;74078;48.420;14.828;2023-11-19T05:17:04;92398.19;;;0.95
81319;BMP280;74078;48.420;14.828;2023-11-19T05:19:30;92400.72;;;0.88
81319;BMP280;74078;48.420;14.828;2023-11-19T05:21:57;92395.72;;;0.88
81319;BMP280;74078;48.420;14.828;2023-11-19T05:24:23;92392.81;;;0.90
81319;BMP280;74078;48.420;14.828;2023-11-19T05:26:52;92388.16;;;0.95
81319;BMP280;74078;48.420;14.828;2023-11-19T05:29:21;92393.13;;;1.03
81319;BMP280;74078;48.420;14.828;2023-11-19T05:31:48;92393.13;;;1.03
81319;BMP280;74078;48.420;14.828;2023-11-19T05:34:14;92384.19;;;1.05
81319;BMP280;74078;48.420;14.828;2023-11-19T05:36:41;92383.13;;;1.03
81319;BMP280;74078;48.420;14.828;2023-11-19T05:39:08;92383.84;;;1.00
81319;BMP280;74078;48.420;14.828;2023-11-19T05:41:36;92381.34;;;1.03
81319;BMP280;74078;48.420;14.828;2023-11-19T05:44:03;92392.09;;;0.96
81319;BMP280;74078;48.420;14.828;2023-11-19T05:46:29;92390.25;;;1.08
81319;BMP280;74078;48.420;14.828;2023-11-19T05:48:59;92384.50;;;1.14
81319;BMP280;74078;48.420;14.828;2023-11-19T05:51:25;92379.81;;;1.20
81319;BMP280;74078;48.420;14.828;2023-11-19T05:53:51;92371.97;;;1.14
81319;BMP280;74078;48.420;14.828;2023-11-19T05:56:19;92361.56;;;1.23
81319;BMP280;74078;48.420;14.828;2023-11-19T05:58:47;92359.63;;;1.41
81319;BMP280;74078;48.420;14.828;2023-11-19T06:01:14;92376.38;;;1.51
81319;BMP280;74078;48.420;14.828;2023-11-19T06:03:41;92369.53;;;1.55
81319;BMP280;74078;48.420;14.828;2023-11-19T06:06:09;92366.44;;;1.40
81319;BMP280;74078;48.420;14.828;2023-11-19T06:08:35;92360.81;;;1.29
81319;BMP280;74078;48.420;14.828;2023-11-19T06:11:03;92356.94;;;1.18
81319;BMP280;74078;48.420;14.828;2023-11-19T06:13:29;92360.50;;;1.17
81319;BMP280;74078;48.420;14.828;2023-11-19T06:15:56;92360.50;;;1.17
81319;BMP280;74078;48.420;14.828;2023-11-19T06:18:22;92352.97;;;1.20
81319;BMP280;74078;48.420;14.828;2023-11-19T06:20:49;92365.13;;;1.25
81319;BMP280;74078;48.420;14.828;2023-11-19T06:23:15;92358.75;;;1.14
81319;BMP280;74078;48.420;14.828;2023-11-19T06:25:41;92371.63;;;1.12
81319;BMP280;74078;48.420;14.828;2023-11-19T06:28:08;92368.81;;;1.07
81319;BMP280;74078;48.420;14.828;2023-11-19T06:30:34;92365.88;;;1.19
81319;BMP280;74078;48.420;14.828;2023-11-19T06:33:01;92359.41;;;1.21
81319;BMP280;74078;48.420;14.828;2023-11-19T06:35:29;92367.00;;;1.11
81319;BMP280;74078;48.420;14.828;2023-11-19T06:38:02;92386.97;;;1.18
81319;BMP280;74078;48.420;14.828;2023-11-19T06:40:30;92382.63;;;1.29
81319;BMP280;74078;48.420;14.828;2023-11-19T06:42:56;92382.50;;;1.43
81319;BMP280;74078;48.420;14.828;2023-11-19T06:45:23;92378.38;;;1.22
81319;BMP280;74078;48.420;14.828;2023-11-19T06:47:50;92387.28;;;1.30
81319;BMP280;74078;48.420;14.828;2023-11-19T06:50:16;92381.41;;;1.47
81319;BMP280;74078;48.420;14.828;2023-11-19T06:52:43;92381.97;;;1.69
81319;BMP280;74078;48.420;14.828;2023-11-19T06:55:10;92377.78;;;1.52
81319;BMP280;74078;48.420;14.828;2023-11-19T06:57:37;92373.00;;;1.27
81319;BMP280;74078;48.420;14.828;2023-11-19T07:00:03;92375.81;;;1.29
81319;BMP280;74078;48.420;14.828;2023-11-19T07:02:31;92365.47;;;1.27
81319;BMP280;74078;48.420;14.828;2023-11-19T07:04:57;92362.44;;;1.50
81319;BMP280;74078;48.420;14.828;2023-11-19T07:07:25;92363.34;;;1.70
81319;BMP280;74078;48.420;14.828;2023-11-19T07:09:52;92364.88;;;1.57
81319;BMP280;74078;48.420;14.828;2023-11-19T07:12:18;92377.41;;;1.57
81319;BMP280;74078;48.420;14.828;2023-11-19T07:14:45;92376.09;;;1.42
81319;BMP280;74078;48.420;14.828;2023-11-19T07:17:12;92370.63;;;1.58
81319;BMP280;74078;48.420;14.828;2023-11-19T07:19:38;92374.78;;;1.71
81319;BMP280;74078;48.420;14.828;2023-11-19T07:22:05;92376.94;;;1.73
81319;BMP280;74078;48.420;14.828;2023-11-19T07:24:32;92367.66;;;1.70
81319;BMP280;74078;48.420;14.828;2023-11-19T07:26:59;92356.88;;;1.76
81319;BMP280;74078;48.420;14.828;2023-11-19T07:29:25;92332.50;;;1.80
81319;BMP280;74078;48.420;14.828;2023-11-19T07:31:52;92327.28;;;1.98
81319;BMP280;74078;48.420;14.828;2023-11-19T07:34:18;92351.59;;;2.05
81319;BMP280;74078;48.420;14.828;2023-11-19T07:36:45;92359.31;;;1.83
81319;BMP280;74078;48.420;14.828;2023-11-19T07:39:11;92365.56;;;1.61
81319;BMP280;74078;48.420;14.828;2023-11-19T07:41:38;92360.31;;;1.86
81319;BMP280;74078;48.420;14.828;2023-11-19T07:44:05;92358.88;;;1.92
81319;BMP280;74078;48.420;14.828;2023-11-19T07:46:32;92361.00;;;1.49
81319;BMP280;74078;48.420;14.828;2023-11-19T07:48:58;92360.22;;;1.59
81319;BMP280;74078;48.420;14.828;2023-11-19T07:51:25;92353.28;;;1.77
81319;BMP280;74078;48.420;14.828;2023-11-19T07:53:52;92372.38;;;2.02
81319;BMP280;74078;48.420;14.828;2023-11-19T07:56:18;92376.59;;;2.12
81319;BMP280;74078;48.420;14.828;2023-11-19T07:58:45;92382.44;;;2.35
81319;BMP280;74078;48.420;14.828;2023-11-19T08:01:11;92383.13;;;2.36
81319;BMP280;74078;48.420;14.828;2023-11-19T08:03:39;92375.81;;;2.18
81319;BMP280;74078;48.420;14.828;2023-11-19T08:06:05;92375.09;;;2.18
81319;BMP280;74078;48.420;14.828;2023-11-19T08:08:32;92366.72;;;2.31
81319;BMP280;74078;48.420;14.828;2023-11-19T08:11:00;92366.00;;;2.31
81319;BMP280;74078;48.420;14.828;2023-11-19T08:13:26;92370.44;;;2.16
81319;BMP280;74078;48.420;14.828;2023-11-19T08:15:53;92385.88;;;2.15
81319;BMP280;74078;48.420;14.828;2023-11-19T08:18:19;92378.00;;;2.13
81319;BMP280;74078;48.420;14.828;2023-11-19T08:20:45;92378.47;;;2.04
81319;BMP280;74078;48.420;14.828;2023-11-19T08:23:15;92384.72;;;1.82
81319;BMP280;74078;48.420;14.828;2023-11-19T08:25:42;92383.28;;;1.84
81319;BMP280;74078;48.420;14.828;2023-11-19T08:28:08;92384.88;;;2.05
81319;BMP280;74078;48.420;14.828;2023-11-19T08:30:35;92385.94;;;2.08
81319;BMP280;74078;48.420;14.828;2023-11-19T08:33:04;92390.28;;;2.04
81319;BMP280;74078;48.420;14.828;2023-11-19T08:35:32;92378.66;;;2.20
81319;BMP280;74078;48.420;14.828;2023-11-19T08:37:59;92383.81;;;2.03
81319;BMP280;74078;48.420;14.828;2023-11-19T08:40:25;92375.69;;;1.91
81319;BMP280;74078;48.420;14.828;2023-11-19T08:42:57;92372.41;;;1.98
81319;BMP280;74078;48.420;14.828;2023-11-19T08:45:24;92377.31;;;2.09
81319;BMP280;74078;48.420;14.828;2023-11-19T08:47:51;92372.78;;;2.34
81319;BMP280;74078;48.420;14.828;2023-11-19T08:50:17;92381.28;;;2.40
81319;BMP280;74078;48.420;14.828;2023-11-19T08:52:44;92371.25;;;2.40
81319;BMP280;74078;48.420;14.828;2023-11-19T08:55:10;92378.06;;;2.43
81319;BMP280;74078;48.420;14.828;2023-11-19T08:57:39;92370.09;;;2.48
81319;BMP280;74078;48.420;14.828;2023-11-19T09:00:05;92365.53;;;2.39
81319;BMP280;74078;48.420;14.828;2023-11-19T09:02:35;92364.78;;;2.46
81319;BMP280;74078;48.420;14.828;2023-11-19T09:05:05;92372.97;;;2.50
81319;BMP280;74078;48.420;14.828;2023-11-19T09:07:36;92374.81;;;2.46
81319;BMP280;74078;48.420;14.828;2023-11-19T09:10:02;92379.22;;;2.35
81319;BMP280;74078;48.420;14.828;2023-11-19T09:12:30;92376.81;;;2.24
81319;BMP280;74078;48.420;14.828;2023-11-19T09:14:57;92387.25;;;2.23
81319;BMP280;74078;48.420;14.828;2023-11-19T09:17:23;92374.88;;;2.02
81319;BMP280;74078;48.420;14.828;2023-11-19T09:19:49;92365.81;;;2.15
81319;BMP280;74078;48.420;14.828;2023-11-19T09:22:16;92368.50;;;2.31
81319;BMP280;74078;48.420;14.828;2023-11-19T09:24:42;92374.13;;;2.42
81319;BMP280;74078;48.420;14.828;2023-11-19T09:27:10;92371.41;;;2.60
81319;BMP280;74078;48.420;14.828;2023-11-19T09:29:37;92357.28;;;2.73
81319;BMP280;74078;48.420;14.828;2023-11-19T09:32:04;92369.19;;;2.65
81319;BMP280;74078;48.420;14.828;2023-11-19T09:34:30;92363.69;;;2.77
81319;BMP280;74078;48.420;14.828;2023-11-19T09:36:57;92364.47;;;2.71
81319;BMP280;74078;48.420;14.828;2023-11-19T09:39:23;92363.56;;;2.58
81319;BMP280;74078;48.420;14.828;2023-11-19T09:41:51;92354.47;;;2.67
81319;BMP280;74078;48.420;14.828;2023-11-19T09:44:17;92358.31;;;2.75
81319;BMP280;74078;48.420;14.828;2023-11-19T09:46:44;92358.72;;;2.70
81319;BMP280;74078;48.420;14.828;2023-11-19T09:49:12;92353.53;;;2.58
81319;BMP280;74078;48.420;14.828;2023-11-19T09:51:39;92349.78;;;2.69
81319;BMP280;74078;48.420;14.828;2023-11-19T09:54:05;92348.22;;;2.79
81319;BMP280;74078;48.420;14.828;2023-11-19T09:56:32;92345.00;;;2.78
81319;BMP280;74078;48.420;14.828;2023-11-19T09:58:59;92347.25;;;2.99
81319;BMP280;74078;48.420;14.828;2023-11-19T10:01:26;92344.72;;;3.26
81319;BMP280;74078;48.420;14.828;2023-11-19T10:03:52;92345.09;;;3.48
81319;BMP280;74078;48.420;14.828;2023-11-19T10:06:21;92340.84;;;3.45
81319;BMP280;74078;48.420;14.828;2023-11-19T10:08:47;92333.78;;;3.60
81319;BMP280;74078;48.420;14.828;2023-11-19T10:11:14;92337.75;;;3.80
81319;BMP280;74078;48.420;14.828;2023-11-19T10:13:41;92344.09;;;3.88
81319;BMP280;74078;48.420;14.828;2023-11-19T10:16:08;92338.69;;;3.67
81319;BMP280;74078;48.420;14.828;2023-11-19T10:18:34;92330.41;;;3.70
81319;BMP280;74078;48.420;14.828;2023-11-19T10:21:04;92331.53;;;3.88
81319;BMP280;74078;48.420;14.828;2023-11-19T10:23:44;92326.16;;;3.86
81319;BMP280;74078;48.420;14.828;2023-11-19T10:26:13;92334.06;;;3.65
81319;BMP280;74078;48.420;14.828;2023-11-19T10:28:43;92319.28;;;3.67
81319;BMP280;74078;48.420;14.828;2023-11-19T10:31:14;92317.56;;;3.64
81319;BMP280;74078;48.420;14.828;2023-11-19T10:33:41;92310.53;;;3.75
81319;BMP280;74078;48.420;14.828;2023-11-19T10:36:08;92312.97;;;3.79
81319;BMP280;74078;48.420;14.828;2023-11-19T10:38:35;92304.94;;;3.68
81319;BMP280;74078;48.420;14.828;2023-11-19T10:41:02;92301.34;;;3.88
81319;BMP280;74078;48.420;14.828;2023-11-19T10:43:29;92306.22;;;3.76
81319;BMP280;74078;48.420;14.828;2023-11-19T10:46:08;92306.16;;;3.79
81319;BMP280;74078;48.420;14.828;2023-11-19T10:48:34;92307.31;;;3.75
81319;BMP280;74078;48.420;14.828;2023-11-19T10:51:00;92295.72;;;3.61
81319;BMP280;74078;48.420;14.828;2023-11-19T10:53:26;92293.13;;;3.65
81319;BMP280;74078;48.420;14.828;2023-11-19T10:55:52;92295.97;;;3.86
81319;BMP280;74078;48.420;14.828;2023-11-19T10:58:19;92300.03;;;4.00
81319;BMP280;74078;48.420;14.828;2023-11-19T11:00:45;92304.78;;;3.94
81319;BMP280;74078;48.420;14.828;2023-11-19T11:03:16;92290.28;;;3.82
81319;BMP280;74078;48.420;14.828;2023-11-19T11:05:42;92289.91;;;3.84
81319;BMP280;74078;48.420;14.828;2023-11-19T11:08:07;92303.91;;;3.85
81319;BMP280;74078;48.420;14.828;2023-11-19T11:10:35;92303.56;;;3.83
81319;BMP280;74078;48.420;14.828;2023-11-19T11:13:02;92302.56;;;3.80
81319;BMP280;74078;48.420;14.828;2023-11-19T11:15:28;92293.81;;;3.88
81319;BMP280;74078;48.420;14.828;2023-11-19T11:17:57;92300.88;;;3.93
81319;BMP280;74078;48.420;14.828;2023-11-19T11:20:25;92286.38;;;4.01
81319;BMP280;74078;48.420;14.828;2023-11-19T11:23:01;92288.50;;;4.02
81319;BMP280;74078;48.420;14.828;2023-11-19T11:25:43;92287.47;;;4.20
81319;BMP280;74078;48.420;14.828;2023-11-19T11:31:14;92292.41;;;4.23
81319;BMP280;74078;48.420;14.828;2023-11-19T11:38:40;92290.00;;;4.36
81319;BMP280;74078;48.420;14.828;2023-11-19T11:41:22;92297.41;;;4.43
81319;BMP280;74078;48.420;14.828;2023-11-19T11:43:49;92289.47;;;4.44
81319;BMP280;74078;48.420;14.828;2023-11-19T11:49:00;92295.56;;;4.47
81319;BMP280;74078;48.420;14.828;2023-11-19T11:59:36;92296.31;;;4.44
81319;BMP280;74078;48.420;14.828;2023-11-19T12:02:02;92298.44;;;4.45
81319;BMP280;74078;48.420;14.828;2023-11-19T12:04:28;92302.53;;;4.55
81319;BMP280;74078;48.420;14.828;2023-11-19T12:07:03;92295.56;;;4.63
81319;BMP280;74078;48.420;14.828;2023-11-19T12:09:28;92287.25;;;4.66
81319;BMP280;74078;48.420;14.828;2023-11-19T12:12:06;92283.56;;;4.71
81319;BMP280;74078;48.420;14.828;2023-11-19T12:20:04;92282.19;;;4.66
81319;BMP280;74078;48.420;14.828;2023-11-19T12:22:30;92286.84;;;4.84
81319;BMP280;74078;48.420;14.828;2023-11-19T12:24:55;92291.31;;;4.92
81319;BMP280;74078;48.420;14.828;2023-11-19T12:27:21;92286.47;;;5.01
81319;BMP280;74078;48.420;14.828;2023-11-19T12:29:49;92283.75;;;4.92
81319;BMP280;74078;48.420;14.828;2023-11-19T12:32:14;92288.72;;;4.96
81319;BMP280;74078;48.420;14.828;2023-11-19T12:34:40;92297.63;;;5.00
81319;BMP280;74078;48.420;14.828;2023-11-19T12:37:05;92292.41;;;4.91
81319;BMP280;74078;48.420;14.828;2023-11-19T12:39:31;92299.44;;;5.00
81319;BMP280;74078;48.420;14.828;2023-11-19T12:41:56;92283.47;;;5.06
81319;BMP280;74078;48.420;14.828;2023-11-19T12:44:24;92288.19;;;5.04
81319;BMP280;74078;48.420;14.828;2023-11-19T12:46:58;92283.47;;;5.06
81319;BMP280;74078;48.420;14.828;2023-11-19T12:49:24;92282.06;;;5.05
81319;BMP280;74078;48.420;14.828;2023-11-19T12:51:50;92283.94;;;5.01
81319;BMP280;74078;48.420;14.828;2023-11-19T12:54:15;92275.59;;;5.21
81319;BMP280;74078;48.420;14.828;2023-11-19T12:56:40;92280.09;;;5.26
81319;BMP280;74078;48.420;14.828;2023-11-19T12:59:10;92273.97;;;5.27
81319;BMP280;74078;48.420;14.828;2023-11-19T13:01:36;92273.66;;;5.25
81319;BMP280;74078;48.420;14.828;2023-11-19T13:04:15;92276.50;;;5.27
81319;BMP280;74078;48.420;14.828;2023-11-19T13:06:44;92269.88;;;5.33
81319;BMP280;74078;48.420;14.828;2023-11-19T13:09:12;92273.09;;;5.33
81319;BMP280;74078;48.420;14.828;2023-11-19T13:11:46;92274.34;;;5.25
81319;BMP280;74078;48.420;14.828;2023-11-19T13:14:11;92277.91;;;5.28
81319;BMP280;74078;48.420;14.828;2023-11-19T13:16:37;92265.31;;;5.28
81319;BMP280;74078;48.420;14.828;2023-11-19T13:19:03;92277.75;;;5.35
81319;BMP280;74078;48.420;14.828;2023-11-19T13:21:28;92267.97;;;5.37
81319;BMP280;74078;48.420;14.828;2023-11-19T13:23:55;92261.03;;;5.70
81319;BMP280;74078;48.420;14.828;2023-11-19T13:26:20;92258.91;;;5.68
81319;BMP280;74078;48.420;14.828;2023-11-19T13:28:45;92250.56;;;5.84
81319;BMP280;74078;48.420;14.828;2023-11-19T13:31:11;92244.50;;;5.69
81319;BMP280;74078;48.420;14.828;2023-11-19T13:33:36;92243.88;;;5.64
81319;BMP280;74078;48.420;14.828;2023-11-19T13:36:02;92242.44;;;5.63
81319;BMP280;74078;48.420;14.828;2023-11-19T13:38:31;92246.72;;;5.67
81319;BMP280;74078;48.420;14.828;2023-11-19T13:40:56;92245.19;;;5.69
81319;BMP280;74078;48.420;14.828;2023-11-19T13:43:21;92251.66;;;5.70
81319;BMP280;74078;48.420;14.828;2023-11-19T13:45:47;92241.25;;;5.68
81319;BMP280;74078;48.420;14.828;2023-11-19T13:48:12;92242.72;;;5.53
81319;BMP280;74078;48.420;14.828;2023-11-19T13:50:37;92244.63;;;5.49
81319;BMP280;74078;48.420;14.828;2023-11-19T13:53:02;92226.31;;;5.74
81319;BMP280;74078;48.420;14.828;2023-11-19T13:55:29;92232.63;;;5.82
81319;BMP280;74078;48.420;14.828;2023-11-19T13:57:55;92230.00;;;5.85
81319;BMP280;74078;48.420;14.828;2023-11-19T14:00:21;92232.63;;;6.07
81319;BMP280;74078;48.420;14.828;2023-11-19T14:02:47;92244.84;;;6.08
81319;BMP280;74078;48.420;14.828;2023-11-19T14:05:13;92241.22;;;6.09
81319;BMP280;74078;48.420;14.828;2023-11-19T14:07:39;92240.69;;;6.14
81319;BMP280;74078;48.420;14.828;2023-11-19T14:10:04;92232.41;;;6.14
81319;BMP280;74078;48.420;14.828;2023-11-19T14:12:34;92244.75;;;6.12
81319;BMP280;74078;48.420;14.828;2023-11-19T14:15:00;92243.22;;;6.14
81319;BMP280;74078;48.420;14.828;2023-11-19T14:17:25;92250.53;;;6.12
81319;BMP280;74078;48.420;14.828;2023-11-19T14:19:51;92252.91;;;6.16
81319;BMP280;74078;48.420;14.828;2023-11-19T14:22:16;92250.31;;;6.19
81319;BMP280;74078;48.420;14.828;2023-11-19T14:24:41;92248.31;;;6.40
81319;BMP280;74078;48.420;14.828;2023-11-19T14:27:08;92255.03;;;6.30
81319;BMP280;74078;48.420;14.828;2023-11-19T14:29:33;92254.94;;;6.34
81319;BMP280;74078;48.420;14.828;2023-11-19T14:32:00;92251.59;;;6.49
81319;BMP280;74078;48.420;14.828;2023-11-19T14:34:25;92261.38;;;6.60